TimePDT,TemperatureF,Dew PointF,Humidity,Sea Level PressureIn,VisibilityMPH,Wind Direction,Wind SpeedMPH,Gust SpeedMPH,PrecipitationIn,Events,Conditions,WindDirDegrees,DateUTC
12:15 AM,44.6,32.0,61,30.21,10.0,Calm,Calm,-,N/A,,Clear,0,2013-09-13 07:15:00
12:35 AM,42.8,32.0,66,30.21,10.0,Calm,Calm,-,N/A,,Clear,0,2013-09-13 07:35:00
12:55 AM,42.8,32.0,66,30.20,10.0,Calm,Calm,-,N/A,,Clear,0,2013-09-13 07:55:00
1:15 AM,42.8,32.0,66,30.20,10.0,Calm,Calm,-,N/A,,Clear,0,2013-09-13 08:15:00
1:35 AM,42.8,30.2,61,30.20,10.0,Calm,Calm,-,N/A,,Clear,0,2013-09-13 08:35:00
1:55 AM,42.8,32.0,66,30.19,10.0,Calm,Calm,-,N/A,,Clear,0,2013-09-13 08:55:00
2:15 AM,42.8,32.0,66,30.19,10.0,Calm,Calm,-,N/A,,Clear,0,2013-09-13 09:15:00
2:35 AM,41.0,32.0,70,30.19,10.0,Calm,Calm,-,N/A,,Clear,0,2013-09-13 09:35:00
2:55 AM,41.0,32.0,70,30.18,10.0,Calm,Calm,-,N/A,,Clear,0,2013-09-13 09:55:00
3:15 AM,41.0,32.0,70,30.18,10.0,Calm,Calm,-,N/A,,Clear,0,2013-09-13 10:15:00
3:35 AM,41.0,32.0,70,30.18,10.0,Calm,Calm,-,N/A,,Clear,0,2013-09-13 10:35:00
3:55 AM,41.0,32.0,70,30.17,10.0,Calm,Calm,-,N/A,,Clear,0,2013-09-13 10:55:00
4:15 AM,41.0,32.0,70,30.17,10.0,Calm,Calm,-,N/A,,Clear,0,2013-09-13 11:15:00
4:35 AM,41.0,32.0,70,30.17,10.0,Calm,Calm,-,N/A,,Clear,0,2013-09-13 11:35:00
4:55 AM,41.0,32.0,70,30.17,10.0,Calm,Calm,-,N/A,,Clear,0,2013-09-13 11:55:00
5:15 AM,39.2,32.0,75,30.17,10.0,Calm,Calm,-,N/A,,Clear,0,2013-09-13 12:15:00
5:35 AM,39.2,32.0,75,30.17,10.0,Calm,Calm,-,N/A,,Clear,0,2013-09-13 12:35:00
5:55 AM,39.2,32.0,75,30.17,10.0,Calm,Calm,-,N/A,,Clear,0,2013-09-13 12:55:00
6:15 AM,39.2,32.0,75,30.17,10.0,Calm,Calm,-,N/A,,Clear,0,2013-09-13 13:15:00
6:35 AM,39.2,32.0,75,30.17,10.0,Calm,Calm,-,N/A,,Clear,0,2013-09-13 13:35:00
6:55 AM,39.2,32.0,75,30.17,10.0,Calm,Calm,-,N/A,,Clear,0,2013-09-13 13:55:00
7:15 AM,41.0,32.0,70,30.17,10.0,Calm,Calm,-,N/A,,Clear,0,2013-09-13 14:15:00
7:35 AM,44.6,35.6,71,30.17,10.0,Calm,Calm,-,N/A,,Clear,0,2013-09-13 14:35:00
7:55 AM,48.2,37.4,66,30.17,10.0,Calm,Calm,-,N/A,,Clear,0,2013-09-13 14:55:00
8:15 AM,51.8,41.0,67,30.17,10.0,West,3.5,-,N/A,,Clear,270,2013-09-13 15:15:00
8:35 AM,55.4,37.4,51,30.17,10.0,West,3.5,-,N/A,,Clear,270,2013-09-13 15:35:00
8:55 AM,59.0,37.4,45,30.16,10.0,West,3.5,-,N/A,,Clear,280,2013-09-13 15:55:00
9:15 AM,62.6,39.2,42,30.16,10.0,Calm,Calm,-,N/A,,Clear,0,2013-09-13 16:15:00
9:35 AM,68.0,33.8,28,30.16,10.0,West,4.6,-,N/A,,Clear,260,2013-09-13 16:35:00
9:55 AM,68.0,32.0,26,30.16,10.0,West,5.8,-,N/A,,Clear,280,2013-09-13 16:55:00
10:15 AM,69.8,30.2,23,30.16,10.0,West,5.8,-,N/A,,Clear,280,2013-09-13 17:15:00
10:35 AM,69.8,32.0,25,30.16,10.0,West,6.9,-,N/A,,Clear,270,2013-09-13 17:35:00
10:55 AM,71.6,32.0,23,30.15,10.0,WNW,3.5,-,N/A,,Clear,300,2013-09-13 17:55:00
11:15 AM,71.6,32.0,23,30.15,10.0,West,8.1,-,N/A,,Clear,270,2013-09-13 18:15:00
11:35 AM,71.6,32.0,23,30.14,10.0,West,4.6,-,N/A,,Clear,270,2013-09-13 18:35:00
11:55 AM,71.6,32.0,23,30.14,10.0,Calm,Calm,-,N/A,,Clear,0,2013-09-13 18:55:00
12:15 PM,71.6,30.2,22,30.14,10.0,NE,5.8,-,N/A,,Clear,40,2013-09-13 19:15:00
12:35 PM,73.4,32.0,22,30.13,10.0,ENE,10.4,-,N/A,,Clear,70,2013-09-13 19:35:00
12:55 PM,71.6,32.0,23,30.13,10.0,ENE,5.8,-,N/A,,Clear,70,2013-09-13 19:55:00
1:15 PM,71.6,32.0,23,30.12,10.0,East,9.2,-,N/A,,Clear,80,2013-09-13 20:15:00
1:35 PM,73.4,32.0,22,30.12,10.0,ENE,8.1,-,N/A,,Clear,70,2013-09-13 20:35:00
1:55 PM,73.4,32.0,22,30.11,10.0,ENE,9.2,16.1,N/A,,Clear,60,2013-09-13 20:55:00
2:15 PM,73.4,32.0,22,30.11,10.0,NNE,6.9,-,N/A,,Clear,20,2013-09-13 21:15:00
2:35 PM,73.4,32.0,22,30.10,10.0,NE,10.4,-,N/A,,Clear,50,2013-09-13 21:35:00
2:55 PM,73.4,32.0,22,30.10,10.0,ENE,6.9,-,N/A,,Clear,60,2013-09-13 21:55:00
3:15 PM,73.4,32.0,22,30.09,10.0,NE,6.9,-,N/A,,Clear,40,2013-09-13 22:15:00
3:35 PM,73.4,32.0,22,30.09,10.0,East,8.1,-,N/A,,Clear,80,2013-09-13 22:35:00
3:55 PM,73.4,32.0,22,30.09,10.0,ENE,6.9,16.1,N/A,,Clear,60,2013-09-13 22:55:00
4:15 PM,73.4,32.0,22,30.09,10.0,NE,8.1,-,N/A,,Clear,50,2013-09-13 23:15:00
4:35 PM,73.4,32.0,22,30.08,10.0,ENE,11.5,-,N/A,,Clear,70,2013-09-13 23:35:00
4:55 PM,71.6,32.0,23,30.08,10.0,ENE,9.2,-,N/A,,Clear,70,2013-09-13 23:55:00
5:15 PM,73.4,33.8,23,30.08,10.0,NE,4.6,-,N/A,,Clear,50,2013-09-14 00:15:00
5:35 PM,71.6,33.8,25,30.08,10.0,North,5.8,-,N/A,,Clear,360,2013-09-14 00:35:00
5:55 PM,71.6,33.8,25,30.08,10.0,NNW,6.9,-,N/A,,Clear,330,2013-09-14 00:55:00
6:15 PM,69.8,33.8,27,30.08,10.0,NNW,4.6,-,N/A,,Clear,340,2013-09-14 01:15:00
6:35 PM,69.8,35.6,28,30.08,10.0,NW,3.5,-,N/A,,Clear,310,2013-09-14 01:35:00
6:55 PM,68.0,35.6,30,30.08,10.0,NW,4.6,-,N/A,,Clear,320,2013-09-14 01:55:00
7:15 PM,64.4,37.4,37,30.09,10.0,Calm,Calm,-,N/A,,Clear,0,2013-09-14 02:15:00
7:35 PM,62.6,37.4,39,30.09,10.0,Calm,Calm,-,N/A,,Clear,0,2013-09-14 02:35:00
7:55 PM,59.0,37.4,45,30.10,10.0,Calm,Calm,-,N/A,,Clear,0,2013-09-14 02:55:00
8:15 PM,57.2,37.4,48,30.11,10.0,Calm,Calm,-,N/A,,Clear,0,2013-09-14 03:15:00
8:35 PM,55.4,37.4,51,30.11,10.0,Calm,Calm,-,N/A,,Clear,0,2013-09-14 03:35:00
8:55 PM,53.6,37.4,54,30.12,10.0,Calm,Calm,-,N/A,,Clear,0,2013-09-14 03:55:00
9:15 PM,53.6,37.4,54,30.12,10.0,Calm,Calm,-,N/A,,Clear,0,2013-09-14 04:15:00
9:35 PM,51.8,37.4,58,30.12,10.0,Calm,Calm,-,N/A,,Clear,0,2013-09-14 04:35:00
9:55 PM,51.8,37.4,58,30.12,10.0,Calm,Calm,-,N/A,,Clear,0,2013-09-14 04:55:00
10:15 PM,50.0,37.4,62,30.12,10.0,Calm,Calm,-,N/A,,Clear,0,2013-09-14 05:15:00
10:35 PM,50.0,37.4,62,30.13,10.0,Calm,Calm,-,N/A,,Clear,0,2013-09-14 05:35:00
10:55 PM,50.0,37.4,62,30.13,10.0,Calm,Calm,-,N/A,,Clear,0,2013-09-14 05:55:00
11:15 PM,48.2,37.4,66,30.12,10.0,Calm,Calm,-,N/A,,Clear,0,2013-09-14 06:15:00
11:35 PM,46.4,37.4,71,30.12,10.0,Calm,Calm,-,N/A,,Clear,0,2013-09-14 06:35:00
11:55 PM,46.4,37.4,71,30.12,10.0,Calm,Calm,-,N/A,,Clear,0,2013-09-14 06:55:00